Time;durP1;ratioP1;P1;durP2;ratioP2;P2;SDS_P1;SDS_P2;PMS_P1;PMS_P2;Temp;Humidity;BMP_temperature;BMP_pressure;BME280_temperature;BME280_humidity;BME280_pressure;Samples;Min_cycle;Max_cycle;Signal;HPM_P1;HPM_P2
2024/04/01 00:01:04;;;;;;;11.98;8.50;;;12.10;99.90;;;;;;5110924;28;20020;-26
2024/04/01 00:03:30;;;;;;;12.93;9.25;;;12.10;99.90;;;;;;5101840;28;20032;-26
2024/04/01 00:05:59;;;;;;;12.02;8.55;;;12.00;99.90;;;;;;5111190;28;20016;-26
2024/04/01 00:08:25;;;;;;;10.77;8.65;;;12.00;99.90;;;;;;5100608;28;20019;-26
2024/04/01 00:10:51;;;;;;;11.30;8.80;;;12.00;99.90;;;;;;5112111;28;20118;-26
2024/04/01 00:13:18;;;;;;;15.50;9.85;;;12.00;99.90;;;;;;5099736;28;20023;-28
2024/04/01 00:15:44;;;;;;;14.73;9.45;;;12.00;99.90;;;;;;5111685;27;20031;-27
2024/04/01 00:18:09;;;;;;;9.75;8.68;;;12.00;99.90;;;;;;5101872;28;20027;-27
2024/04/01 00:20:39;;;;;;;13.07;9.30;;;12.00;99.90;;;;;;5114131;27;20035;-27
2024/04/01 00:23:05;;;;;;;12.02;9.05;;;11.90;99.90;;;;;;5102721;27;20434;-27
2024/04/01 00:25:31;;;;;;;12.75;8.77;;;11.90;99.90;;;;;;5111233;27;20134;-26
2024/04/01 00:27:57;;;;;;;9.45;7.75;;;11.90;99.90;;;;;;5106418;27;20078;-27
2024/04/01 00:30:23;;;;;;;10.30;7.80;;;11.90;99.90;;;;;;5110351;27;20035;-27
2024/04/01 00:32:48;;;;;;;10.57;7.82;;;11.80;99.90;;;;;;5108225;27;20023;-27
2024/04/01 00:35:16;;;;;;;9.18;7.70;;;11.80;99.90;;;;;;5112329;27;20477;-27
2024/04/01 00:37:42;;;;;;;11.95;7.43;;;11.80;99.90;;;;;;5116004;27;20945;-26
2024/04/01 00:40:08;;;;;;;9.52;6.70;;;11.80;99.90;;;;;;5121965;27;20019;-26
2024/04/01 00:42:35;;;;;;;10.68;6.65;;;11.80;99.90;;;;;;5113870;27;20027;-26
2024/04/01 00:45:00;;;;;;;9.55;6.45;;;11.80;99.90;;;;;;5122345;27;20027;-26
2024/04/01 00:47:27;;;;;;;8.45;6.88;;;11.70;99.90;;;;;;5111307;27;20083;-26
2024/04/01 00:49:55;;;;;;;7.85;6.30;;;11.70;99.90;;;;;;5123095;27;20027;-26
2024/04/01 00:52:22;;;;;;;7.05;6.20;;;11.70;99.90;;;;;;5112291;27;20031;-26
2024/04/01 00:54:51;;;;;;;7.45;6.20;;;11.70;99.90;;;;;;5123573;27;20039;-26
2024/04/01 00:57:18;;;;;;;9.60;6.25;;;11.70;99.90;;;;;;5110582;27;20028;-26
2024/04/01 00:59:44;;;;;;;8.52;6.28;;;11.70;99.90;;;;;;5124556;27;20423;-27
2024/04/01 01:02:12;;;;;;;11.13;7.47;;;11.70;99.90;;;;;;5109690;27;20517;-27
2024/04/01 01:04:38;;;;;;;8.75;6.57;;;11.60;99.90;;;;;;5124470;27;20054;-27
2024/04/01 01:07:03;;;;;;;9.45;7.05;;;11.60;99.90;;;;;;5112750;27;21070;-26
2024/04/01 01:09:29;;;;;;;9.23;6.40;;;11.60;99.90;;;;;;5122021;27;20521;-26
2024/04/01 01:11:59;;;;;;;9.43;7.57;;;11.60;99.90;;;;;;5115705;27;20016;-27
2024/04/01 01:14:25;;;;;;;10.70;6.88;;;11.60;99.90;;;;;;5119462;27;20034;-27
2024/04/01 01:16:56;;;;;;;8.18;6.50;;;11.60;99.90;;;;;;5117665;27;20020;-28
2024/04/01 01:19:24;;;;;;;7.13;6.43;;;11.60;99.90;;;;;;5118387;27;20047;-27
2024/04/01 01:21:49;;;;;;;8.80;6.15;;;11.50;99.90;;;;;;5117628;27;20142;-27
2024/04/01 01:24:16;;;;;;;8.70;6.07;;;11.50;99.90;;;;;;5115107;27;20024;-27
2024/04/01 01:26:41;;;;;;;10.23;6.28;;;11.50;99.90;;;;;;5122170;27;20019;-26
2024/04/01 01:29:07;;;;;;;8.68;5.72;;;11.50;99.90;;;;;;5122308;27;20530;-27
2024/04/01 01:31:32;;;;;;;8.00;5.55;;;11.50;99.90;;;;;;5122591;27;20030;-27
2024/04/01 01:33:58;;;;;;;8.68;6.40;;;11.50;99.90;;;;;;5109953;27;20041;-26
2024/04/01 01:36:24;;;;;;;8.88;5.95;;;11.50;99.90;;;;;;5102873;28;20035;-27
2024/04/01 01:38:52;;;;;;;9.15;5.90;;;11.50;99.90;;;;;;5115361;27;20020;-28
2024/04/01 01:41:18;;;;;;;7.85;5.70;;;11.50;99.90;;;;;;5102785;28;20479;-27
2024/04/01 01:43:46;;;;;;;8.20;6.10;;;11.50;99.90;;;;;;5116399;27;20031;-27
2024/04/01 01:46:12;;;;;;;6.90;5.70;;;11.40;99.90;;;;;;5122045;27;20043;-27
2024/04/01 01:48:37;;;;;;;9.80;5.60;;;11.50;99.90;;;;;;5119219;27;20026;-27
2024/04/01 01:51:03;;;;;;;6.80;4.90;;;11.40;99.90;;;;;;5102399;27;20080;-28
2024/04/01 01:53:31;;;;;;;6.25;4.80;;;11.40;99.90;;;;;;5112660;27;20027;-27
2024/04/01 01:55:57;;;;;;;6.20;4.60;;;11.40;99.90;;;;;;5105416;27;20030;-27
2024/04/01 01:58:22;;;;;;;6.60;4.80;;;11.40;99.90;;;;;;5109068;27;20011;-31
2024/04/01 02:00:48;;;;;;;4.90;4.43;;;11.40;99.90;;;;;;5107952;27;20023;-27
2024/04/01 02:03:13;;;;;;;6.53;5.38;;;11.40;99.90;;;;;;5106909;27;20110;-27
2024/04/01 02:05:40;;;;;;;7.00;4.93;;;11.40;99.90;;;;;;5111187;27;20027;-26
2024/04/01 02:08:06;;;;;;;6.85;4.55;;;11.30;99.90;;;;;;5104356;27;20035;-26
2024/04/01 02:10:35;;;;;;;5.60;4.28;;;11.30;99.90;;;;;;5112591;27;20040;-26
2024/04/01 02:13:05;;;;;;;6.47;4.63;;;11.30;99.90;;;;;;5102666;27;20033;-28
2024/04/01 02:15:32;;;;;;;5.25;4.00;;;11.30;99.90;;;;;;5112834;27;20101;-27
2024/04/01 02:17:57;;;;;;;4.78;4.05;;;11.30;99.90;;;;;;5102439;27;20744;-27
2024/04/01 02:20:23;;;;;;;4.65;3.63;;;11.30;99.90;;;;;;5112728;27;20055;-27
2024/04/01 02:22:48;;;;;;;5.28;4.10;;;11.30;99.90;;;;;;5101730;28;20123;-27
2024/04/01 02:25:17;;;;;;;5.05;3.83;;;11.30;99.90;;;;;;5113758;27;20823;-27
2024/04/01 02:27:44;;;;;;;5.30;4.03;;;11.30;99.90;;;;;;5102100;27;20035;-27
2024/04/01 02:30:09;;;;;;;4.65;3.50;;;11.30;99.90;;;;;;5114029;27;20043;-27
2024/04/01 02:32:35;;;;;;;4.10;3.70;;;11.30;99.90;;;;;;5101107;28;20026;-27
2024/04/01 02:35:00;;;;;;;5.47;3.50;;;11.30;99.90;;;;;;5112745;27;20121;-27
2024/04/01 02:37:26;;;;;;;4.43;3.47;;;11.30;99.90;;;;;;5103140;27;20047;-28
2024/04/01 02:39:52;;;;;;;6.72;4.38;;;11.30;99.90;;;;;;5108206;27;20023;-26
2024/04/01 02:42:17;;;;;;;5.00;3.42;;;11.20;99.90;;;;;;5105944;27;20127;-27
2024/04/01 02:44:43;;;;;;;4.03;3.45;;;11.20;99.90;;;;;;5107216;27;20081;-27
2024/04/01 02:47:11;;;;;;;3.60;3.10;;;11.20;99.90;;;;;;5107932;27;20032;-27
2024/04/01 02:49:36;;;;;;;6.35;3.40;;;11.20;99.90;;;;;;5105101;27;20031;-27
2024/04/01 02:52:07;;;;;;;4.15;3.03;;;11.20;99.90;;;;;;5110966;27;20076;-27
2024/04/01 02:54:33;;;;;;;4.15;2.88;;;11.20;99.90;;;;;;5102701;27;20055;-27
2024/04/01 02:56:58;;;;;;;4.38;2.60;;;11.10;99.90;;;;;;5118227;27;20106;-27
2024/04/01 02:59:24;;;;;;;5.88;3.08;;;11.10;99.90;;;;;;5120157;27;20031;-27
2024/04/01 03:01:50;;;;;;;2.80;2.53;;;11.10;99.90;;;;;;5109822;27;20023;-27
2024/04/01 03:04:16;;;;;;;3.03;2.45;;;11.10;99.90;;;;;;5122534;27;20027;-26
2024/04/01 03:06:42;;;;;;;2.45;2.22;;;11.10;99.90;;;;;;5110136;27;20019;-28
2024/04/01 03:09:07;;;;;;;3.08;2.10;;;11.20;99.90;;;;;;5121524;27;20043;-26
2024/04/01 03:11:33;;;;;;;3.15;2.30;;;11.10;99.90;;;;;;5108186;28;20031;-27
2024/04/01 03:13:58;;;;;;;4.00;2.42;;;11.20;99.90;;;;;;5120760;28;20114;-27
2024/04/01 03:16:24;;;;;;;3.67;2.30;;;11.20;99.90;;;;;;5110190;28;20026;-26
2024/04/01 03:18:49;;;;;;;3.42;2.80;;;11.10;99.90;;;;;;5119157;28;20066;-27
2024/04/01 03:21:18;;;;;;;3.33;2.22;;;11.20;99.90;;;;;;5112248;28;20027;-27
2024/04/01 03:23:44;;;;;;;2.67;2.40;;;11.10;99.90;;;;;;5117622;28;20475;-27
2024/04/01 03:26:09;;;;;;;2.60;2.40;;;11.10;99.90;;;;;;5115178;28;20110;-27
2024/04/01 03:28:35;;;;;;;2.92;2.22;;;11.10;99.90;;;;;;5114538;28;20019;-26
2024/04/01 03:31:05;;;;;;;3.33;2.45;;;11.10;99.90;;;;;;5117859;28;20725;-27
2024/04/01 03:33:32;;;;;;;3.22;2.50;;;11.10;99.90;;;;;;5112840;28;20039;-27
2024/04/01 03:35:57;;;;;;;3.17;2.20;;;11.00;99.90;;;;;;5104015;27;20092;-27
2024/04/01 03:38:23;;;;;;;2.95;2.25;;;11.00;99.90;;;;;;5109803;28;20748;-27
2024/04/01 03:40:48;;;;;;;3.33;2.33;;;11.00;99.90;;;;;;5119686;28;20019;-27
2024/04/01 03:43:18;;;;;;;2.45;2.17;;;11.00;99.90;;;;;;5108692;28;20063;-26
2024/04/01 03:45:45;;;;;;;3.58;2.35;;;11.00;99.90;;;;;;5121331;27;20058;-27
2024/04/01 03:48:10;;;;;;;2.42;2.22;;;11.00;99.90;;;;;;5108041;28;20641;-27
2024/04/01 03:50:41;;;;;;;3.15;2.47;;;10.90;99.90;;;;;;5121134;27;20525;-27
2024/04/01 03:53:07;;;;;;;2.15;1.95;;;10.90;99.90;;;;;;5111167;27;20478;-27
2024/04/01 03:55:32;;;;;;;3.30;2.28;;;10.90;99.90;;;;;;5125422;27;20138;-26
2024/04/01 03:57:59;;;;;;;3.38;2.38;;;10.90;99.90;;;;;;5111073;27;20114;-26
2024/04/01 04:00:25;;;;;;;2.60;2.10;;;10.90;99.90;;;;;;5104129;28;20378;-27
2024/04/01 04:02:51;;;;;;;2.22;2.03;;;10.80;99.90;;;;;;5107795;27;20556;-27
2024/04/01 04:05:16;;;;;;;2.15;1.95;;;10.90;99.90;;;;;;5122438;27;20138;-27
2024/04/01 04:07:42;;;;;;;2.25;2.05;;;10.90;99.90;;;;;;5117656;27;20118;-27
2024/04/01 04:10:07;;;;;;;2.97;2.10;;;10.90;99.90;;;;;;5118404;27;20803;-27
2024/04/01 04:12:33;;;;;;;3.28;2.35;;;10.90;99.90;;;;;;5120169;27;20581;-26
2024/04/01 04:15:03;;;;;;;4.20;2.30;;;10.90;99.90;;;;;;5117023;27;20039;-27
2024/04/01 04:17:32;;;;;;;2.53;2.33;;;10.90;99.90;;;;;;5121614;27;20015;-27
2024/04/01 04:19:58;;;;;;;2.33;1.98;;;10.90;99.90;;;;;;5114251;27;20055;-27
2024/04/01 04:22:23;;;;;;;2.90;2.47;;;10.90;99.90;;;;;;5122713;27;20068;-27
2024/04/01 04:24:51;;;;;;;2.42;2.00;;;10.90;99.90;;;;;;5112194;27;20124;-26
2024/04/01 04:27:17;;;;;;;3.03;2.13;;;10.90;99.90;;;;;;5122746;27;20106;-26
2024/04/01 04:29:43;;;;;;;2.22;1.85;;;10.90;99.90;;;;;;5112947;27;20039;-26
2024/04/01 04:32:12;;;;;;;2.38;2.17;;;10.90;99.90;;;;;;5123231;27;20439;-26
2024/04/01 04:34:39;;;;;;;2.35;2.03;;;10.90;99.90;;;;;;5114275;27;20031;-27
2024/04/01 04:37:08;;;;;;;1.92;1.83;;;10.90;99.90;;;;;;5124005;27;20027;-26
2024/04/01 04:39:35;;;;;;;3.17;1.80;;;10.90;99.90;;;;;;5111011;27;20034;-26
2024/04/01 04:42:01;;;;;;;2.15;1.95;;;10.90;99.90;;;;;;5125200;27;20062;-26
2024/04/01 04:44:27;;;;;;;2.13;1.92;;;10.90;99.90;;;;;;5120895;27;20767;-26
2024/04/01 04:46:52;;;;;;;3.35;2.00;;;10.90;99.90;;;;;;5103933;27;20019;-27
2024/04/01 04:49:18;;;;;;;2.22;2.03;;;10.90;99.90;;;;;;5111946;27;20038;-26
2024/04/01 04:51:44;;;;;;;2.20;2.00;;;10.90;99.90;;;;;;5107331;27;20111;-27
2024/04/01 04:54:09;;;;;;;2.53;2.10;;;10.90;99.90;;;;;;5109548;27;20023;-28
2024/04/01 04:56:35;;;;;;;3.53;2.08;;;10.90;99.90;;;;;;5109595;27;20766;-27
2024/04/01 04:59:02;;;;;;;2.85;2.40;;;10.90;99.90;;;;;;5106508;27;20352;-26
2024/04/01 05:01:27;;;;;;;2.78;2.50;;;10.90;99.90;;;;;;5111021;27;20043;-27
2024/04/01 05:03:54;;;;;;;3.55;2.65;;;10.90;99.90;;;;;;5104270;27;20019;-27
2024/04/01 05:06:19;;;;;;;3.00;2.47;;;10.80;99.90;;;;;;5111528;27;20518;-27
2024/04/01 05:08:45;;;;;;;3.50;2.83;;;10.90;99.90;;;;;;5122025;27;20035;-26
2024/04/01 05:11:11;;;;;;;3.33;2.83;;;10.90;99.90;;;;;;5113648;27;20051;-26
2024/04/01 05:13:39;;;;;;;3.22;2.90;;;10.80;99.90;;;;;;5102402;27;20096;-26
2024/04/01 05:16:05;;;;;;;3.75;2.97;;;10.90;99.90;;;;;;5117660;27;20035;-27
2024/04/01 05:18:31;;;;;;;3.72;3.05;;;10.90;99.90;;;;;;5102755;28;20027;-26
2024/04/01 05:20:57;;;;;;;4.10;3.70;;;10.90;99.90;;;;;;5114934;27;20455;-28
2024/04/01 05:23:23;;;;;;;3.42;3.13;;;10.90;99.90;;;;;;5103252;28;20082;-26
2024/04/01 05:25:49;;;;;;;3.70;3.33;;;10.90;99.90;;;;;;5114437;27;20030;-27
2024/04/01 05:28:15;;;;;;;4.15;3.30;;;10.90;99.90;;;;;;5103539;27;20437;-27
2024/04/01 05:30:40;;;;;;;4.15;3.17;;;10.90;99.90;;;;;;5112153;27;20601;-27
2024/04/01 05:33:06;;;;;;;4.50;3.35;;;10.90;99.90;;;;;;5105814;27;20079;-27
2024/04/01 05:35:33;;;;;;;3.08;2.78;;;10.90;99.90;;;;;;5106441;27;20047;-27
2024/04/01 05:38:03;;;;;;;3.50;2.90;;;10.90;99.90;;;;;;5116897;27;20024;-27
2024/04/01 05:40:28;;;;;;;3.55;3.25;;;10.90;99.90;;;;;;5118941;27;20046;-27
2024/04/01 05:42:54;;;;;;;3.67;3.38;;;11.00;99.90;;;;;;5114310;27;20022;-27
2024/04/01 05:45:19;;;;;;;4.18;3.15;;;11.00;99.90;;;;;;5121517;27;20477;-27
2024/04/01 05:47:48;;;;;;;4.63;3.22;;;11.00;99.90;;;;;;5111739;27;20344;-26
2024/04/01 05:50:20;;;;;;;4.07;2.97;;;11.00;99.90;;;;;;5119727;27;20031;-26
2024/04/01 05:52:46;;;;;;;3.30;3.00;;;10.90;99.90;;;;;;5110829;27;20019;-26
2024/04/01 05:55:13;;;;;;;2.53;2.30;;;11.00;99.90;;;;;;5120800;27;20034;-26
2024/04/01 05:57:38;;;;;;;2.50;2.30;;;11.00;99.90;;;;;;5110251;27;20642;-26
2024/04/01 06:00:05;;;;;;;2.58;2.38;;;11.00;99.90;;;;;;5122336;27;20106;-26
2024/04/01 06:02:30;;;;;;;2.63;2.03;;;11.00;99.90;;;;;;5109065;27;20038;-26
2024/04/01 06:04:56;;;;;;;1.98;1.88;;;11.00;99.90;;;;;;5122690;27;20478;-26
2024/04/01 06:07:21;;;;;;;2.08;1.90;;;11.00;99.90;;;;;;5109053;27;20031;-27
2024/04/01 06:09:47;;;;;;;2.20;2.00;;;11.00;99.90;;;;;;5122177;27;20503;-27
2024/04/01 06:12:13;;;;;;;3.22;2.05;;;11.00;99.90;;;;;;5111436;27;20055;-27
2024/04/01 06:14:38;;;;;;;2.00;1.80;;;11.10;99.90;;;;;;5119203;27;20034;-31
2024/04/01 06:17:04;;;;;;;1.60;1.50;;;11.10;99.90;;;;;;5112788;27;20031;-27
2024/04/01 06:19:29;;;;;;;2.17;1.98;;;11.10;99.90;;;;;;5117302;27;20042;-27
2024/04/01 06:21:55;;;;;;;1.80;1.70;;;11.10;99.90;;;;;;5116126;27;20489;-27
2024/04/01 06:24:21;;;;;;;2.03;1.88;;;11.10;99.90;;;;;;5112916;27;20046;-27
2024/04/01 06:26:46;;;;;;;3.28;2.10;;;11.10;99.90;;;;;;5119630;27;20020;-27
2024/04/01 06:29:12;;;;;;;1.92;1.67;;;11.10;99.90;;;;;;5110668;27;20042;-27
2024/04/01 06:31:37;;;;;;;1.70;1.50;;;11.20;99.90;;;;;;5119593;27;20022;-28
2024/04/01 06:34:03;;;;;;;1.80;1.70;;;11.10;99.90;;;;;;5109948;27;20542;-27
2024/04/01 06:36:28;;;;;;;2.10;1.90;;;11.10;99.90;;;;;;5103001;27;20115;-27
2024/04/01 06:38:54;;;;;;;3.47;2.55;;;11.10;99.90;;;;;;5112362;27;20016;-27
2024/04/01 06:41:23;;;;;;;2.42;1.70;;;11.10;99.90;;;;;;5101293;28;20036;-27
2024/04/01 06:43:54;;;;;;;2.00;1.80;;;11.10;99.90;;;;;;5113967;27;20031;-27
2024/04/01 06:46:29;;;;;;;2.50;1.90;;;11.10;99.90;;;;;;5100729;28;20019;-31
2024/04/01 06:49:00;;;;;;;2.05;1.67;;;11.10;99.90;;;;;;5114053;27;20493;-27
2024/04/01 06:51:33;;;;;;;1.92;1.77;;;11.20;99.90;;;;;;5101261;28;20076;-27
2024/04/01 06:54:02;;;;;;;2.13;1.95;;;11.20;99.90;;;;;;5112455;27;20031;-28
2024/04/01 06:56:28;;;;;;;3.15;2.30;;;11.20;99.90;;;;;;5100590;28;20055;-27
2024/04/01 06:58:53;;;;;;;2.17;1.98;;;11.20;99.90;;;;;;5111766;27;20119;-27
2024/04/01 07:01:23;;;;;;;2.17;1.95;;;11.20;99.90;;;;;;5102137;28;20760;-27
2024/04/01 07:03:49;;;;;;;2.78;2.22;;;11.20;99.90;;;;;;5110133;27;20015;-27
2024/04/01 07:06:14;;;;;;;2.65;1.92;;;11.20;99.90;;;;;;5103113;27;20035;-27
2024/04/01 07:08:40;;;;;;;3.17;2.88;;;11.20;99.90;;;;;;5107812;27;20096;-26
2024/04/01 07:11:05;;;;;;;2.95;1.92;;;11.20;99.90;;;;;;5106211;28;20134;-35
2024/04/01 07:13:34;;;;;;;1.70;1.52;;;11.20;99.90;;;;;;5104332;28;20063;-26
2024/04/01 07:15:59;;;;;;;1.75;1.65;;;11.20;99.90;;;;;;5109075;28;20035;-27
2024/04/01 07:18:25;;;;;;;1.73;1.63;;;11.30;99.90;;;;;;5102858;28;20020;-27
2024/04/01 07:20:51;;;;;;;1.80;1.70;;;11.30;99.90;;;;;;5111392;27;20112;-27
2024/04/01 07:23:17;;;;;;;2.67;1.35;;;11.30;99.90;;;;;;5102811;28;20071;-26
2024/04/01 07:25:43;;;;;;;2.75;1.58;;;11.30;99.90;;;;;;5114488;27;20473;-26
2024/04/01 07:28:08;;;;;;;1.65;1.45;;;11.30;99.90;;;;;;5105351;27;20869;-27
2024/04/01 07:30:34;;;;;;;1.63;1.50;;;11.30;99.90;;;;;;5118357;27;20071;-26
2024/04/01 07:32:59;;;;;;;2.80;1.50;;;11.30;99.90;;;;;;5105099;28;20034;-27
2024/04/01 07:35:25;;;;;;;1.40;1.30;;;11.30;99.90;;;;;;5108294;27;20090;-28
2024/04/01 07:37:51;;;;;;;1.40;1.30;;;11.30;99.90;;;;;;5104955;28;20089;-27
2024/04/01 07:40:17;;;;;;;1.50;1.27;;;11.30;99.90;;;;;;5109303;27;20023;-27
2024/04/01 07:42:45;;;;;;;1.55;1.45;;;11.30;99.90;;;;;;5123971;27;20019;-27
2024/04/01 07:45:12;;;;;;;1.83;1.20;;;11.30;99.90;;;;;;5114771;27;20493;-27
2024/04/01 07:47:37;;;;;;;2.17;1.48;;;11.30;99.90;;;;;;5121769;27;20106;-28
2024/04/01 07:50:05;;;;;;;1.05;1.02;;;11.30;99.90;;;;;;5117437;27;20092;-28
2024/04/01 07:52:30;;;;;;;1.73;1.23;;;11.30;99.90;;;;;;5119427;27;20019;-27
2024/04/01 07:54:57;;;;;;;1.80;1.50;;;11.30;99.90;;;;;;5119988;27;20024;-28
2024/04/01 07:57:28;;;;;;;1.30;1.20;;;11.30;99.90;;;;;;5116608;27;20031;-28
2024/04/01 07:59:54;;;;;;;1.75;1.15;;;11.30;99.90;;;;;;5122571;27;20114;-28
2024/04/01 08:02:19;;;;;;;1.30;1.20;;;11.30;99.90;;;;;;5113712;27;20027;-28
2024/04/01 08:04:45;;;;;;;1.35;1.25;;;11.30;99.90;;;;;;5123421;27;20029;-28
2024/04/01 08:07:14;;;;;;;1.58;1.20;;;11.30;99.90;;;;;;5113066;27;20027;-26
2024/04/01 08:09:40;;;;;;;1.60;1.23;;;11.40;99.90;;;;;;5122537;27;20062;-27
2024/04/01 08:12:06;;;;;;;4.25;1.95;;;11.40;99.90;;;;;;5113060;27;20103;-27
2024/04/01 08:14:31;;;;;;;2.72;2.47;;;11.40;99.90;;;;;;5124693;27;20039;-27
2024/04/01 08:16:57;;;;;;;3.30;2.75;;;11.40;99.90;;;;;;5110374;27;20108;-27
2024/04/01 08:19:25;;;;;;;4.18;3.38;;;11.40;99.90;;;;;;5123799;27;20051;-27
2024/04/01 08:21:54;;;;;;;3.55;3.15;;;11.40;99.90;;;;;;5110938;27;20028;-27
2024/04/01 08:24:19;;;;;;;4.22;3.40;;;11.40;99.90;;;;;;5123719;27;20095;-27
2024/04/01 08:26:45;;;;;;;3.60;3.28;;;11.40;99.90;;;;;;5120443;27;20859;-27
2024/04/01 08:29:11;;;;;;;3.58;3.13;;;11.40;99.90;;;;;;5105366;27;20059;-27
2024/04/01 08:31:36;;;;;;;3.95;3.45;;;11.40;99.90;;;;;;5111240;27;20031;-27
2024/04/01 08:34:02;;;;;;;4.30;3.20;;;11.40;99.90;;;;;;5108315;27;20107;-27
2024/04/01 08:36:27;;;;;;;3.38;3.08;;;11.40;99.90;;;;;;5113394;27;20352;-27
2024/04/01 08:38:53;;;;;;;4.40;3.22;;;11.40;99.90;;;;;;5114852;27;20509;-27
2024/04/01 08:41:30;;;;;;;3.13;2.75;;;11.50;99.90;;;;;;5119348;27;20027;-27
2024/04/01 08:44:11;;;;;;;3.83;3.10;;;11.40;99.90;;;;;;5114306;27;20023;-27
2024/04/01 08:46:42;;;;;;;2.80;2.60;;;11.40;99.90;;;;;;5118614;27;20054;-27
2024/04/01 08:49:12;;;;;;;3.53;2.70;;;11.40;99.90;;;;;;5114811;27;20557;-27
2024/04/01 08:51:39;;;;;;;5.40;2.80;;;11.40;99.90;;;;;;5119797;27;20020;-27
2024/04/01 08:54:09;;;;;;;3.13;2.60;;;11.40;99.90;;;;;;5110691;27;20657;-27
2024/04/01 08:56:40;;;;;;;3.00;2.70;;;11.50;99.90;;;;;;5120114;27;20020;-27
2024/04/01 08:59:09;;;;;;;3.22;2.92;;;11.40;99.90;;;;;;5109562;27;20079;-27
2024/04/01 09:01:35;;;;;;;5.15;3.90;;;11.40;99.90;;;;;;5120673;27;20165;-27
2024/04/01 09:04:02;;;;;;;4.22;3.45;;;11.40;99.90;;;;;;5110402;27;20075;-27
2024/04/01 09:06:29;;;;;;;3.65;3.25;;;11.40;99.90;;;;;;5119443;27;20015;-27
2024/04/01 09:08:56;;;;;;;4.20;3.80;;;11.40;99.90;;;;;;5110146;27;20027;-27
2024/04/01 09:11:23;;;;;;;4.50;4.10;;;11.50;99.90;;;;;;5122398;27;20035;-28
2024/04/01 09:13:52;;;;;;;4.03;3.65;;;11.50;99.90;;;;;;5108899;27;20024;-28
2024/04/01 09:16:26;;;;;;;4.32;3.65;;;11.50;99.90;;;;;;5122462;27;20031;-28
2024/04/01 09:18:51;;;;;;;4.03;3.63;;;11.50;99.90;;;;;;5109289;27;20043;-28
2024/04/01 09:21:21;;;;;;;4.07;3.63;;;11.50;99.90;;;;;;5122543;27;20023;-27
2024/04/01 09:23:47;;;;;;;3.38;3.08;;;11.60;99.90;;;;;;5110708;27;20413;-27
2024/04/01 09:26:14;;;;;;;4.07;3.67;;;11.50;99.90;;;;;;5121328;27;20031;-27
2024/04/01 09:28:40;;;;;;;2.90;2.60;;;11.60;99.90;;;;;;5110792;27;20134;-27
2024/04/01 09:31:05;;;;;;;2.55;2.35;;;11.60;99.90;;;;;;5117000;27;20037;-27
2024/04/01 09:33:32;;;;;;;2.67;2.47;;;11.60;99.90;;;;;;5113505;27;20027;-27
2024/04/01 09:35:59;;;;;;;2.20;2.10;;;11.60;99.90;;;;;;5103016;27;20031;-28
2024/04/01 09:38:25;;;;;;;2.90;2.58;;;11.60;99.90;;;;;;5105970;27;20129;-27
2024/04/01 09:40:52;;;;;;;2.83;2.55;;;11.70;99.90;;;;;;5109221;27;20118;-27
2024/04/01 09:43:25;;;;;;;3.22;2.92;;;11.70;99.90;;;;;;5103656;27;20048;-28
2024/04/01 09:45:52;;;;;;;3.20;2.90;;;11.70;99.90;;;;;;5111635;27;20135;-27
2024/04/01 09:48:22;;;;;;;2.85;2.40;;;11.70;99.90;;;;;;5101848;27;20040;-26
2024/04/01 09:50:49;;;;;;;2.75;2.55;;;11.70;99.90;;;;;;5112239;27;20039;-26
2024/04/01 09:53:18;;;;;;;3.30;2.95;;;11.80;99.90;;;;;;5103324;27;20065;-36
2024/04/01 09:56:08;;;;;;;2.97;2.67;;;11.90;99.90;;;;;;5109563;27;20033;-27
2024/04/01 09:58:49;;;;;;;2.80;2.60;;;11.90;99.90;;;;;;5121277;27;20020;-27
2024/04/01 10:01:33;;;;;;;2.72;2.50;;;11.90;99.90;;;;;;5109841;27;20051;-27
2024/04/01 10:04:30;;;;;;;2.55;2.30;;;12.00;99.90;;;;;;5116281;27;20029;-27
2024/04/01 10:07:17;;;;;;;3.28;2.97;;;12.00;99.90;;;;;;5106490;27;20032;-27
2024/04/01 10:10:21;;;;;;;3.03;2.50;;;12.00;99.90;;;;;;5107508;27;20035;-27
2024/04/01 10:13:33;;;;;;;3.78;3.00;;;12.10;99.90;;;;;;5103254;27;20043;-28
2024/04/01 10:16:11;;;;;;;2.70;2.50;;;12.00;99.90;;;;;;5115895;27;20031;-30
2024/04/01 10:18:49;;;;;;;2.83;2.60;;;12.10;99.90;;;;;;5115381;27;20058;-29
2024/04/01 10:21:51;;;;;;;2.65;2.45;;;12.00;99.90;;;;;;5117797;27;20042;-26
2024/04/01 10:24:43;;;;;;;4.70;2.97;;;12.00;99.90;;;;;;5107773;27;20474;-27
2024/04/01 10:27:20;;;;;;;2.92;2.70;;;12.00;99.90;;;;;;5109392;27;20030;-29
2024/04/01 10:29:46;;;;;;;3.65;3.35;;;12.00;99.90;;;;;;5116657;27;20046;-29
2024/04/01 10:32:29;;;;;;;3.63;3.30;;;11.90;99.90;;;;;;5118195;27;20023;-27
2024/04/01 10:35:25;;;;;;;3.22;2.92;;;11.90;99.90;;;;;;5119177;27;20045;-27
2024/04/01 10:38:00;;;;;;;2.75;2.55;;;11.90;99.90;;;;;;5121103;27;20656;-27
2024/04/01 10:40:58;;;;;;;3.08;2.72;;;11.90;99.90;;;;;;5117436;27;20019;-26
2024/04/01 10:44:02;;;;;;;2.83;2.60;;;11.90;99.90;;;;;;5117071;27;20023;-27
2024/04/01 10:46:49;;;;;;;3.22;2.67;;;11.90;99.90;;;;;;5110040;27;20503;-28
2024/04/01 10:49:38;;;;;;;2.83;2.63;;;12.00;99.90;;;;;;5101522;28;20486;-27
2024/04/01 10:52:13;;;;;;;2.72;2.53;;;12.00;99.90;;;;;;5115935;27;20723;-27
2024/04/01 10:55:03;;;;;;;3.25;2.95;;;12.00;99.90;;;;;;5101948;28;20019;-27
2024/04/01 10:58:11;;;;;;;3.20;2.72;;;12.10;99.90;;;;;;5116575;27;20047;-27
2024/04/01 11:01:05;;;;;;;3.70;3.40;;;12.10;99.90;;;;;;5102203;28;20042;-27
2024/04/01 11:03:55;;;;;;;3.75;3.45;;;12.10;99.90;;;;;;5112201;27;20060;-27
2024/04/01 11:06:42;;;;;;;3.83;3.53;;;12.10;99.90;;;;;;5115782;27;20033;-27
2024/04/01 11:09:29;;;;;;;3.95;3.55;;;12.10;99.90;;;;;;5104528;27;20634;-27
2024/04/01 11:12:13;;;;;;;5.40;4.25;;;12.10;99.90;;;;;;5107557;28;20630;-27
2024/04/01 11:14:40;;;;;;;5.40;5.00;;;12.10;99.90;;;;;;5101721;27;20031;-27
2024/04/01 11:17:10;;;;;;;5.15;4.65;;;12.10;99.90;;;;;;5107252;28;20019;-27
2024/04/01 11:19:57;;;;;;;5.00;4.60;;;12.00;99.90;;;;;;5104251;27;20752;-26
2024/04/01 11:23:00;;;;;;;5.65;4.95;;;12.10;99.90;;;;;;5112577;28;20697;-27
2024/04/01 11:25:35;;;;;;;5.05;4.57;;;12.00;99.90;;;;;;5100823;28;20061;-27
2024/04/01 11:28:19;;;;;;;5.13;4.60;;;12.10;99.90;;;;;;5104190;28;20040;-27
2024/04/01 11:30:45;;;;;;;5.15;4.63;;;12.10;99.90;;;;;;5101096;28;20146;-26
2024/04/01 11:33:15;;;;;;;5.20;4.50;;;12.10;99.90;;;;;;5102958;28;20016;-27
2024/04/01 11:35:53;;;;;;;4.82;4.43;;;12.10;99.90;;;;;;5109592;28;20028;-27
2024/04/01 11:38:30;;;;;;;4.72;4.22;;;12.10;99.90;;;;;;5116369;27;20027;-27
2024/04/01 11:40:58;;;;;;;5.00;4.53;;;12.10;99.90;;;;;;5099927;28;20023;-27
2024/04/01 11:43:26;;;;;;;7.03;4.50;;;12.10;99.90;;;;;;5104495;28;20038;-27
2024/04/01 11:45:56;;;;;;;4.70;3.80;;;12.10;99.90;;;;;;5119739;28;20080;-27
2024/04/01 11:48:23;;;;;;;4.00;3.58;;;12.10;99.90;;;;;;5109864;27;20059;-27
2024/04/01 11:50:50;;;;;;;4.13;3.40;;;12.20;99.90;;;;;;5117855;28;20379;-27
2024/04/01 11:53:16;;;;;;;4.35;3.55;;;12.20;99.90;;;;;;5112814;27;20019;-27
2024/04/01 11:55:58;;;;;;;4.30;3.22;;;12.30;99.90;;;;;;5115328;28;20023;-27
2024/04/01 11:58:25;;;;;;;3.25;2.95;;;12.40;99.90;;;;;;5113318;27;20032;-27
2024/04/01 12:00:52;;;;;;;4.70;2.80;;;12.50;99.90;;;;;;5115109;28;20083;-27
2024/04/01 12:03:19;;;;;;;5.32;3.40;;;12.60;99.90;;;;;;5114536;27;20028;-27
2024/04/01 12:05:47;;;;;;;3.03;2.35;;;12.60;99.90;;;;;;5112947;28;20040;-27
2024/04/01 12:08:21;;;;;;;4.05;2.70;;;12.70;99.90;;;;;;5116325;27;20191;-26
2024/04/01 12:10:48;;;;;;;4.53;2.70;;;12.80;99.90;;;;;;5111772;28;20444;-27
2024/04/01 12:13:15;;;;;;;4.88;2.50;;;12.90;99.90;;;;;;5121338;27;20163;-29
2024/04/01 12:15:43;;;;;;;5.22;2.60;;;12.90;99.90;;;;;;5113156;27;20128;-28
2024/04/01 12:18:11;;;;;;;3.88;2.10;;;13.00;99.90;;;;;;5122948;27;20106;-28
2024/04/01 12:20:40;;;;;;;3.75;1.80;;;13.00;99.90;;;;;;5112834;27;20058;-28
2024/04/01 12:23:07;;;;;;;1.90;1.60;;;13.00;99.90;;;;;;5121246;27;20023;-28
2024/04/01 12:25:34;;;;;;;5.47;1.85;;;13.10;99.90;;;;;;5120758;27;20015;-29
2024/04/01 12:28:10;;;;;;;2.65;1.85;;;13.20;99.90;;;;;;5124139;27;20026;-28
2024/04/01 12:30:37;;;;;;;2.78;1.52;;;13.40;99.90;;;;;;5118605;27;20035;-29
2024/04/01 12:33:06;;;;;;;3.85;1.80;;;13.40;99.90;;;;;;5103697;28;20027;-28
2024/04/01 12:35:35;;;;;;;2.30;1.50;;;13.40;99.90;;;;;;5111063;27;20764;-29
2024/04/01 12:38:03;;;;;;;2.75;2.00;;;13.40;99.90;;;;;;5103522;28;20023;-29
2024/04/01 12:40:30;;;;;;;3.58;2.30;;;13.50;99.90;;;;;;5116572;27;20025;-27
2024/04/01 12:42:56;;;;;;;3.67;1.77;;;13.60;99.90;;;;;;5103654;28;20035;-26
2024/04/01 12:45:23;;;;;;;2.92;1.83;;;13.70;99.90;;;;;;5113099;27;20504;-26
2024/04/01 12:47:49;;;;;;;4.32;2.47;;;13.70;99.90;;;;;;5104477;27;20475;-28
2024/04/01 12:50:15;;;;;;;2.55;2.10;;;13.80;99.90;;;;;;5110879;27;20074;-27
2024/04/01 12:53:03;;;;;;;3.28;1.98;;;13.80;99.90;;;;;;5106979;27;20110;-28
2024/04/01 12:55:32;;;;;;;2.35;1.77;;;13.90;99.90;;;;;;5112686;27;20092;-28